sensor_id;sensor_type;location;lat;lon;timestamp;P1;durP1;ratioP1;P2;durP2;ratioP2
6027;SDS011;3042;43.194;27.646;2023-12-20T00:02:21;23.03;;;21.13;;
6027;SDS011;3042;43.194;27.646;2023-12-20T00:04:48;27.07;;;22.97;;
6027;SDS011;3042;43.194;27.646;2023-12-20T00:07:15;30.67;;;23.90;;
6027;SDS011;3042;43.194;27.646;2023-12-20T00:09:42;27.60;;;23.73;;
6027;SDS011;3042;43.194;27.646;2023-12-20T00:12:10;26.33;;;23.73;;
6027;SDS011;3042;43.194;27.646;2023-12-20T00:14:38;23.37;;;20.97;;
6027;SDS011;3042;43.194;27.646;2023-12-20T00:17:05;25.77;;;23.17;;
6027;SDS011;3042;43.194;27.646;2023-12-20T00:19:33;26.60;;;24.30;;
6027;SDS011;3042;43.194;27.646;2023-12-20T00:22:00;27.60;;;25.00;;
6027;SDS011;3042;43.194;27.646;2023-12-20T00:24:27;27.57;;;24.50;;
6027;SDS011;3042;43.194;27.646;2023-12-20T00:26:54;29.90;;;24.97;;
6027;SDS011;3042;43.194;27.646;2023-12-20T00:29:21;26.37;;;23.83;;
6027;SDS011;3042;43.194;27.646;2023-12-20T00:31:50;26.23;;;23.73;;
6027;SDS011;3042;43.194;27.646;2023-12-20T00:34:17;26.63;;;24.13;;
6027;SDS011;3042;43.194;27.646;2023-12-20T00:36:44;33.63;;;24.67;;
6027;SDS011;3042;43.194;27.646;2023-12-20T00:39:12;26.30;;;24.10;;
6027;SDS011;3042;43.194;27.646;2023-12-20T00:41:39;25.67;;;23.33;;
6027;SDS011;3042;43.194;27.646;2023-12-20T00:44:07;27.63;;;24.87;;
6027;SDS011;3042;43.194;27.646;2023-12-20T00:46:34;30.40;;;23.90;;
6027;SDS011;3042;43.194;27.646;2023-12-20T00:49:02;27.73;;;24.93;;
6027;SDS011;3042;43.194;27.646;2023-12-20T00:51:30;26.33;;;23.70;;
6027;SDS011;3042;43.194;27.646;2023-12-20T00:53:57;27.50;;;24.93;;
6027;SDS011;3042;43.194;27.646;2023-12-20T00:56:24;27.13;;;24.33;;
6027;SDS011;3042;43.194;27.646;2023-12-20T00:58:51;28.13;;;25.60;;
6027;SDS011;3042;43.194;27.646;2023-12-20T01:01:18;27.80;;;22.43;;
6027;SDS011;3042;43.194;27.646;2023-12-20T01:03:45;28.17;;;22.10;;
6027;SDS011;3042;43.194;27.646;2023-12-20T01:06:14;26.93;;;21.67;;
6027;SDS011;3042;43.194;27.646;2023-12-20T01:08:42;27.80;;;24.90;;
6027;SDS011;3042;43.194;27.646;2023-12-20T01:11:09;26.50;;;23.70;;
6027;SDS011;3042;43.194;27.646;2023-12-20T01:13:36;27.90;;;25.07;;
6027;SDS011;3042;43.194;27.646;2023-12-20T01:16:03;25.83;;;23.20;;
6027;SDS011;3042;43.194;27.646;2023-12-20T01:18:31;29.23;;;25.90;;
6027;SDS011;3042;43.194;27.646;2023-12-20T01:21:01;27.63;;;25.13;;
6027;SDS011;3042;43.194;27.646;2023-12-20T01:23:30;29.07;;;26.10;;
6027;SDS011;3042;43.194;27.646;2023-12-20T01:25:58;25.93;;;23.50;;
6027;SDS011;3042;43.194;27.646;2023-12-20T01:28:26;29.80;;;24.63;;
6027;SDS011;3042;43.194;27.646;2023-12-20T01:30:53;28.63;;;25.73;;
6027;SDS011;3042;43.194;27.646;2023-12-20T01:33:20;27.47;;;24.73;;
6027;SDS011;3042;43.194;27.646;2023-12-20T01:35:47;26.10;;;23.97;;
6027;SDS011;3042;43.194;27.646;2023-12-20T01:38:15;25.03;;;22.53;;
6027;SDS011;3042;43.194;27.646;2023-12-20T01:40:45;25.73;;;23.53;;
6027;SDS011;3042;43.194;27.646;2023-12-20T01:43:12;26.30;;;23.70;;
6027;SDS011;3042;43.194;27.646;2023-12-20T01:45:40;27.67;;;25.27;;
6027;SDS011;3042;43.194;27.646;2023-12-20T01:48:08;26.23;;;23.73;;
6027;SDS011;3042;43.194;27.646;2023-12-20T01:50:36;26.13;;;23.67;;
6027;SDS011;3042;43.194;27.646;2023-12-20T01:53:05;21.77;;;19.87;;
6027;SDS011;3042;43.194;27.646;2023-12-20T01:55:34;23.70;;;21.50;;
6027;SDS011;3042;43.194;27.646;2023-12-20T01:58:06;25.77;;;23.73;;
6027;SDS011;3042;43.194;27.646;2023-12-20T02:00:35;27.07;;;24.87;;
6027;SDS011;3042;43.194;27.646;2023-12-20T02:03:03;26.10;;;24.00;;
6027;SDS011;3042;43.194;27.646;2023-12-20T02:05:31;27.30;;;24.83;;
6027;SDS011;3042;43.194;27.646;2023-12-20T02:08:00;25.40;;;23.27;;
6027;SDS011;3042;43.194;27.646;2023-12-20T02:10:27;26.17;;;23.87;;
6027;SDS011;3042;43.194;27.646;2023-12-20T02:12:55;26.13;;;23.87;;
6027;SDS011;3042;43.194;27.646;2023-12-20T02:15:24;26.63;;;24.03;;
6027;SDS011;3042;43.194;27.646;2023-12-20T02:17:51;28.67;;;26.00;;
6027;SDS011;3042;43.194;27.646;2023-12-20T02:20:18;26.60;;;23.43;;
6027;SDS011;3042;43.194;27.646;2023-12-20T02:22:47;29.93;;;25.50;;
6027;SDS011;3042;43.194;27.646;2023-12-20T02:25:14;27.70;;;24.47;;
6027;SDS011;3042;43.194;27.646;2023-12-20T02:27:42;27.33;;;24.40;;
6027;SDS011;3042;43.194;27.646;2023-12-20T02:30:09;28.57;;;24.67;;
6027;SDS011;3042;43.194;27.646;2023-12-20T02:32:37;26.57;;;23.80;;
6027;SDS011;3042;43.194;27.646;2023-12-20T02:35:04;51.27;;;25.17;;
6027;SDS011;3042;43.194;27.646;2023-12-20T02:37:32;26.80;;;24.30;;
6027;SDS011;3042;43.194;27.646;2023-12-20T02:40:01;24.53;;;22.53;;
6027;SDS011;3042;43.194;27.646;2023-12-20T02:42:29;24.57;;;22.30;;
6027;SDS011;3042;43.194;27.646;2023-12-20T02:44:56;23.90;;;22.10;;
6027;SDS011;3042;43.194;27.646;2023-12-20T02:47:24;23.87;;;21.87;;
6027;SDS011;3042;43.194;27.646;2023-12-20T02:49:51;24.60;;;22.60;;
6027;SDS011;3042;43.194;27.646;2023-12-20T02:52:18;24.53;;;22.50;;
6027;SDS011;3042;43.194;27.646;2023-12-20T02:54:45;27.53;;;25.03;;
6027;SDS011;3042;43.194;27.646;2023-12-20T02:57:14;26.60;;;24.00;;
6027;SDS011;3042;43.194;27.646;2023-12-20T02:59:41;26.93;;;24.10;;
6027;SDS011;3042;43.194;27.646;2023-12-20T03:02:08;27.80;;;22.90;;
6027;SDS011;3042;43.194;27.646;2023-12-20T03:04:36;30.70;;;26.20;;
6027;SDS011;3042;43.194;27.646;2023-12-20T03:07:03;26.17;;;23.73;;
6027;SDS011;3042;43.194;27.646;2023-12-20T03:09:30;27.43;;;24.63;;
6027;SDS011;3042;43.194;27.646;2023-12-20T03:11:57;25.87;;;23.67;;
6027;SDS011;3042;43.194;27.646;2023-12-20T03:14:26;32.27;;;24.40;;
6027;SDS011;3042;43.194;27.646;2023-12-20T03:16:53;27.23;;;24.30;;
6027;SDS011;3042;43.194;27.646;2023-12-20T03:19:20;25.53;;;23.33;;
6027;SDS011;3042;43.194;27.646;2023-12-20T03:21:49;26.83;;;24.20;;
6027;SDS011;3042;43.194;27.646;2023-12-20T03:24:18;25.73;;;23.60;;
6027;SDS011;3042;43.194;27.646;2023-12-20T03:26:45;26.97;;;22.00;;
6027;SDS011;3042;43.194;27.646;2023-12-20T03:29:12;24.67;;;22.53;;
6027;SDS011;3042;43.194;27.646;2023-12-20T03:31:41;25.60;;;23.20;;
6027;SDS011;3042;43.194;27.646;2023-12-20T03:34:08;22.43;;;20.53;;
6027;SDS011;3042;43.194;27.646;2023-12-20T03:36:35;21.27;;;19.47;;
6027;SDS011;3042;43.194;27.646;2023-12-20T03:39:04;26.25;;;23.75;;
6027;SDS011;3042;43.194;27.646;2023-12-20T03:41:31;26.07;;;23.30;;
6027;SDS011;3042;43.194;27.646;2023-12-20T03:43:58;26.50;;;23.87;;
6027;SDS011;3042;43.194;27.646;2023-12-20T03:46:26;24.23;;;22.30;;
6027;SDS011;3042;43.194;27.646;2023-12-20T03:48:54;29.10;;;25.17;;
6027;SDS011;3042;43.194;27.646;2023-12-20T03:51:21;34.30;;;24.23;;
6027;SDS011;3042;43.194;27.646;2023-12-20T03:53:49;24.63;;;22.40;;
6027;SDS011;3042;43.194;27.646;2023-12-20T03:56:16;27.13;;;24.57;;
6027;SDS011;3042;43.194;27.646;2023-12-20T03:58:43;25.37;;;23.17;;
6027;SDS011;3042;43.194;27.646;2023-12-20T04:01:10;25.87;;;23.37;;
6027;SDS011;3042;43.194;27.646;2023-12-20T04:03:38;24.87;;;22.73;;
6027;SDS011;3042;43.194;27.646;2023-12-20T04:06:07;26.83;;;24.30;;
6027;SDS011;3042;43.194;27.646;2023-12-20T04:08:34;37.83;;;26.60;;
6027;SDS011;3042;43.194;27.646;2023-12-20T04:11:02;27.83;;;24.90;;
6027;SDS011;3042;43.194;27.646;2023-12-20T04:13:29;27.00;;;24.13;;
6027;SDS011;3042;43.194;27.646;2023-12-20T04:15:56;28.15;;;25.65;;
6027;SDS011;3042;43.194;27.646;2023-12-20T04:18:24;25.97;;;23.60;;
6027;SDS011;3042;43.194;27.646;2023-12-20T04:20:51;27.20;;;24.60;;
6027;SDS011;3042;43.194;27.646;2023-12-20T04:23:20;23.83;;;20.80;;
6027;SDS011;3042;43.194;27.646;2023-12-20T04:25:47;27.60;;;24.90;;
6027;SDS011;3042;43.194;27.646;2023-12-20T04:28:14;29.37;;;26.27;;
6027;SDS011;3042;43.194;27.646;2023-12-20T04:30:42;29.13;;;25.87;;
6027;SDS011;3042;43.194;27.646;2023-12-20T04:33:09;27.03;;;24.53;;
6027;SDS011;3042;43.194;27.646;2023-12-20T04:35:36;30.57;;;27.23;;
6027;SDS011;3042;43.194;27.646;2023-12-20T04:38:03;31.97;;;28.40;;
6027;SDS011;3042;43.194;27.646;2023-12-20T04:40:33;29.40;;;26.43;;
6027;SDS011;3042;43.194;27.646;2023-12-20T04:43:00;31.43;;;27.40;;
6027;SDS011;3042;43.194;27.646;2023-12-20T04:45:27;31.70;;;27.73;;
6027;SDS011;3042;43.194;27.646;2023-12-20T04:47:55;38.90;;;32.80;;
6027;SDS011;3042;43.194;27.646;2023-12-20T04:50:22;31.67;;;27.00;;
6027;SDS011;3042;43.194;27.646;2023-12-20T04:52:49;33.53;;;30.13;;
6027;SDS011;3042;43.194;27.646;2023-12-20T04:55:16;33.00;;;29.58;;
6027;SDS011;3042;43.194;27.646;2023-12-20T04:57:45;29.90;;;26.90;;
6027;SDS011;3042;43.194;27.646;2023-12-20T05:00:13;30.83;;;27.70;;
6027;SDS011;3042;43.194;27.646;2023-12-20T05:02:41;57.87;;;25.33;;
6027;SDS011;3042;43.194;27.646;2023-12-20T05:05:08;48.77;;;24.83;;
6027;SDS011;3042;43.194;27.646;2023-12-20T05:07:35;27.23;;;24.53;;
6027;SDS011;3042;43.194;27.646;2023-12-20T05:10:03;26.70;;;24.07;;
6027;SDS011;3042;43.194;27.646;2023-12-20T05:12:30;51.87;;;25.07;;
6027;SDS011;3042;43.194;27.646;2023-12-20T05:15:00;27.50;;;24.87;;
6027;SDS011;3042;43.194;27.646;2023-12-20T05:17:27;36.60;;;24.10;;
6027;SDS011;3042;43.194;27.646;2023-12-20T05:19:54;37.60;;;25.30;;
6027;SDS011;3042;43.194;27.646;2023-12-20T05:22:21;25.03;;;22.73;;
6027;SDS011;3042;43.194;27.646;2023-12-20T05:24:49;35.67;;;24.93;;
6027;SDS011;3042;43.194;27.646;2023-12-20T05:27:16;34.47;;;25.60;;
6027;SDS011;3042;43.194;27.646;2023-12-20T05:29:43;26.67;;;23.37;;
6027;SDS011;3042;43.194;27.646;2023-12-20T05:32:12;26.37;;;23.57;;
6027;SDS011;3042;43.194;27.646;2023-12-20T05:34:39;26.97;;;24.67;;
6027;SDS011;3042;43.194;27.646;2023-12-20T05:37:06;26.50;;;23.40;;
6027;SDS011;3042;43.194;27.646;2023-12-20T05:39:33;28.50;;;25.80;;
6027;SDS011;3042;43.194;27.646;2023-12-20T05:42:00;36.17;;;24.83;;
6027;SDS011;3042;43.194;27.646;2023-12-20T05:44:27;25.13;;;22.93;;
6027;SDS011;3042;43.194;27.646;2023-12-20T05:46:54;26.50;;;23.80;;
6027;SDS011;3042;43.194;27.646;2023-12-20T05:49:22;26.10;;;23.70;;
6027;SDS011;3042;43.194;27.646;2023-12-20T05:51:49;30.90;;;22.97;;
6027;SDS011;3042;43.194;27.646;2023-12-20T05:54:17;27.97;;;22.10;;
6027;SDS011;3042;43.194;27.646;2023-12-20T05:56:44;31.90;;;22.43;;
6027;SDS011;3042;43.194;27.646;2023-12-20T05:59:11;38.93;;;26.03;;
6027;SDS011;3042;43.194;27.646;2023-12-20T06:01:39;38.20;;;25.80;;
6027;SDS011;3042;43.194;27.646;2023-12-20T06:04:06;77.07;;;31.40;;
6027;SDS011;3042;43.194;27.646;2023-12-20T06:06:34;79.67;;;33.00;;
6027;SDS011;3042;43.194;27.646;2023-12-20T06:09:07;104.73;;;36.03;;
6027;SDS011;3042;43.194;27.646;2023-12-20T06:11:35;118.90;;;38.87;;
6027;SDS011;3042;43.194;27.646;2023-12-20T06:14:02;126.53;;;39.30;;
6027;SDS011;3042;43.194;27.646;2023-12-20T06:16:29;156.33;;;40.07;;
6027;SDS011;3042;43.194;27.646;2023-12-20T06:18:56;134.37;;;42.93;;
6027;SDS011;3042;43.194;27.646;2023-12-20T06:21:23;196.17;;;47.60;;
6027;SDS011;3042;43.194;27.646;2023-12-20T06:23:52;157.17;;;46.40;;
6027;SDS011;3042;43.194;27.646;2023-12-20T06:26:20;179.73;;;54.20;;
6027;SDS011;3042;43.194;27.646;2023-12-20T06:28:47;167.07;;;52.60;;
6027;SDS011;3042;43.194;27.646;2023-12-20T06:31:14;161.83;;;54.13;;
6027;SDS011;3042;43.194;27.646;2023-12-20T06:33:42;142.33;;;53.87;;
6027;SDS011;3042;43.194;27.646;2023-12-20T06:36:11;227.73;;;52.47;;
6027;SDS011;3042;43.194;27.646;2023-12-20T06:38:38;141.17;;;44.43;;
6027;SDS011;3042;43.194;27.646;2023-12-20T06:41:08;172.67;;;45.10;;
6027;SDS011;3042;43.194;27.646;2023-12-20T06:43:40;148.10;;;44.70;;
6027;SDS011;3042;43.194;27.646;2023-12-20T06:46:07;153.50;;;46.43;;
6027;SDS011;3042;43.194;27.646;2023-12-20T06:48:35;148.57;;;44.80;;
6027;SDS011;3042;43.194;27.646;2023-12-20T06:51:02;157.70;;;49.80;;
6027;SDS011;3042;43.194;27.646;2023-12-20T06:53:29;277.10;;;57.95;;
6027;SDS011;3042;43.194;27.646;2023-12-20T06:55:57;226.00;;;55.13;;
6027;SDS011;3042;43.194;27.646;2023-12-20T06:58:26;203.57;;;56.83;;
6027;SDS011;3042;43.194;27.646;2023-12-20T07:00:53;246.30;;;57.87;;
6027;SDS011;3042;43.194;27.646;2023-12-20T07:03:20;182.20;;;57.73;;
6027;SDS011;3042;43.194;27.646;2023-12-20T07:05:48;198.83;;;64.97;;
6027;SDS011;3042;43.194;27.646;2023-12-20T07:08:15;248.03;;;72.47;;
6027;SDS011;3042;43.194;27.646;2023-12-20T07:10:42;235.67;;;65.20;;
6027;SDS011;3042;43.194;27.646;2023-12-20T07:13:09;211.83;;;68.27;;
6027;SDS011;3042;43.194;27.646;2023-12-20T07:15:39;220.80;;;70.47;;
6027;SDS011;3042;43.194;27.646;2023-12-20T07:18:06;254.40;;;71.97;;
6027;SDS011;3042;43.194;27.646;2023-12-20T07:20:33;242.13;;;67.37;;
6027;SDS011;3042;43.194;27.646;2023-12-20T07:23:01;163.60;;;62.70;;
6027;SDS011;3042;43.194;27.646;2023-12-20T07:25:28;144.37;;;56.87;;
6027;SDS011;3042;43.194;27.646;2023-12-20T07:27:57;214.35;;;61.78;;
6027;SDS011;3042;43.194;27.646;2023-12-20T07:30:24;165.07;;;52.73;;
6027;SDS011;3042;43.194;27.646;2023-12-20T07:32:53;136.50;;;52.60;;
6027;SDS011;3042;43.194;27.646;2023-12-20T07:35:20;123.70;;;49.67;;
6027;SDS011;3042;43.194;27.646;2023-12-20T07:37:48;102.73;;;47.20;;
6027;SDS011;3042;43.194;27.646;2023-12-20T07:40:15;148.33;;;47.73;;
6027;SDS011;3042;43.194;27.646;2023-12-20T07:42:42;89.53;;;46.43;;
6027;SDS011;3042;43.194;27.646;2023-12-20T07:45:10;142.30;;;53.00;;
6027;SDS011;3042;43.194;27.646;2023-12-20T07:47:37;84.73;;;46.07;;
6027;SDS011;3042;43.194;27.646;2023-12-20T07:50:07;102.53;;;47.60;;
6027;SDS011;3042;43.194;27.646;2023-12-20T07:52:35;88.63;;;45.90;;
6027;SDS011;3042;43.194;27.646;2023-12-20T07:55:02;106.73;;;48.70;;
6027;SDS011;3042;43.194;27.646;2023-12-20T07:57:29;83.30;;;50.50;;
6027;SDS011;3042;43.194;27.646;2023-12-20T07:59:57;100.50;;;52.30;;
6027;SDS011;3042;43.194;27.646;2023-12-20T08:02:24;87.33;;;51.63;;
6027;SDS011;3042;43.194;27.646;2023-12-20T08:04:51;118.67;;;52.87;;
6027;SDS011;3042;43.194;27.646;2023-12-20T08:07:20;120.20;;;56.70;;
6027;SDS011;3042;43.194;27.646;2023-12-20T08:09:47;120.43;;;58.27;;
6027;SDS011;3042;43.194;27.646;2023-12-20T08:12:14;118.07;;;58.23;;
6027;SDS011;3042;43.194;27.646;2023-12-20T08:14:42;93.27;;;54.23;;
6027;SDS011;3042;43.194;27.646;2023-12-20T08:17:09;91.53;;;53.87;;
6027;SDS011;3042;43.194;27.646;2023-12-20T08:19:37;86.37;;;52.03;;
6027;SDS011;3042;43.194;27.646;2023-12-20T08:22:04;59.60;;;44.50;;
6027;SDS011;3042;43.194;27.646;2023-12-20T08:24:33;46.10;;;37.93;;
6027;SDS011;3042;43.194;27.646;2023-12-20T08:27:03;69.30;;;33.50;;
6027;SDS011;3042;43.194;27.646;2023-12-20T08:29:31;48.80;;;34.90;;
6027;SDS011;3042;43.194;27.646;2023-12-20T08:31:58;46.23;;;36.07;;
6027;SDS011;3042;43.194;27.646;2023-12-20T08:34:26;49.70;;;41.00;;
6027;SDS011;3042;43.194;27.646;2023-12-20T08:36:53;55.37;;;41.07;;
6027;SDS011;3042;43.194;27.646;2023-12-20T08:39:20;65.37;;;45.53;;
6027;SDS011;3042;43.194;27.646;2023-12-20T08:41:49;66.90;;;43.97;;
6027;SDS011;3042;43.194;27.646;2023-12-20T08:44:19;75.47;;;46.27;;
6027;SDS011;3042;43.194;27.646;2023-12-20T08:46:47;61.53;;;45.30;;
6027;SDS011;3042;43.194;27.646;2023-12-20T08:49:15;74.10;;;48.30;;
6027;SDS011;3042;43.194;27.646;2023-12-20T08:51:42;73.07;;;46.53;;
6027;SDS011;3042;43.194;27.646;2023-12-20T08:54:12;74.90;;;46.37;;
6027;SDS011;3042;43.194;27.646;2023-12-20T08:56:40;67.93;;;50.93;;
6027;SDS011;3042;43.194;27.646;2023-12-20T08:59:10;92.23;;;54.80;;
6027;SDS011;3042;43.194;27.646;2023-12-20T09:01:38;98.97;;;51.80;;
6027;SDS011;3042;43.194;27.646;2023-12-20T09:04:06;110.40;;;61.43;;
6027;SDS011;3042;43.194;27.646;2023-12-20T09:06:33;129.18;;;74.93;;
6027;SDS011;3042;43.194;27.646;2023-12-20T09:09:00;131.97;;;69.30;;
6027;SDS011;3042;43.194;27.646;2023-12-20T09:11:28;138.77;;;67.20;;
6027;SDS011;3042;43.194;27.646;2023-12-20T09:13:55;111.57;;;62.47;;
6027;SDS011;3042;43.194;27.646;2023-12-20T09:16:24;76.33;;;59.43;;
6027;SDS011;3042;43.194;27.646;2023-12-20T09:18:51;84.43;;;52.03;;
6027;SDS011;3042;43.194;27.646;2023-12-20T09:21:18;88.70;;;50.87;;
6027;SDS011;3042;43.194;27.646;2023-12-20T09:23:45;85.90;;;50.37;;
6027;SDS011;3042;43.194;27.646;2023-12-20T09:26:12;103.57;;;52.33;;
6027;SDS011;3042;43.194;27.646;2023-12-20T09:28:40;84.63;;;55.20;;
6027;SDS011;3042;43.194;27.646;2023-12-20T09:31:07;85.73;;;54.70;;
6027;SDS011;3042;43.194;27.646;2023-12-20T09:33:36;91.83;;;55.97;;
6027;SDS011;3042;43.194;27.646;2023-12-20T09:36:03;100.87;;;65.90;;
6027;SDS011;3042;43.194;27.646;2023-12-20T09:38:30;104.90;;;61.77;;
6027;SDS011;3042;43.194;27.646;2023-12-20T09:40:58;150.17;;;67.47;;
6027;SDS011;3042;43.194;27.646;2023-12-20T09:43:27;73.93;;;51.60;;
6027;SDS011;3042;43.194;27.646;2023-12-20T09:45:55;84.23;;;52.17;;
6027;SDS011;3042;43.194;27.646;2023-12-20T09:48:27;81.77;;;52.90;;
6027;SDS011;3042;43.194;27.646;2023-12-20T09:50:56;85.60;;;63.90;;
6027;SDS011;3042;43.194;27.646;2023-12-20T09:53:23;64.50;;;47.10;;
6027;SDS011;3042;43.194;27.646;2023-12-20T09:55:55;71.07;;;46.27;;
6027;SDS011;3042;43.194;27.646;2023-12-20T09:58:25;72.27;;;49.60;;
6027;SDS011;3042;43.194;27.646;2023-12-20T10:00:52;111.43;;;51.67;;
6027;SDS011;3042;43.194;27.646;2023-12-20T10:03:22;63.97;;;48.10;;
6027;SDS011;3042;43.194;27.646;2023-12-20T10:05:52;67.30;;;46.40;;
6027;SDS011;3042;43.194;27.646;2023-12-20T10:08:24;63.63;;;45.40;;
6027;SDS011;3042;43.194;27.646;2023-12-20T10:10:51;53.00;;;43.00;;
6027;SDS011;3042;43.194;27.646;2023-12-20T10:13:19;51.63;;;41.97;;
6027;SDS011;3042;43.194;27.646;2023-12-20T10:15:46;47.93;;;36.00;;
6027;SDS011;3042;43.194;27.646;2023-12-20T10:18:13;45.53;;;34.33;;
6027;SDS011;3042;43.194;27.646;2023-12-20T10:20:44;38.13;;;31.90;;
6027;SDS011;3042;43.194;27.646;2023-12-20T10:23:12;37.07;;;33.00;;
6027;SDS011;3042;43.194;27.646;2023-12-20T10:25:41;55.23;;;34.37;;
6027;SDS011;3042;43.194;27.646;2023-12-20T10:28:09;35.73;;;31.77;;
6027;SDS011;3042;43.194;27.646;2023-12-20T10:30:37;35.47;;;31.60;;
6027;SDS011;3042;43.194;27.646;2023-12-20T10:33:05;44.73;;;32.33;;
6027;SDS011;3042;43.194;27.646;2023-12-20T10:35:33;36.03;;;31.87;;
6027;SDS011;3042;43.194;27.646;2023-12-20T10:38:02;40.90;;;33.00;;
6027;SDS011;3042;43.194;27.646;2023-12-20T10:40:31;37.10;;;33.10;;
6027;SDS011;3042;43.194;27.646;2023-12-20T10:43:03;35.43;;;31.83;;
6027;SDS011;3042;43.194;27.646;2023-12-20T10:45:31;37.20;;;33.23;;
6027;SDS011;3042;43.194;27.646;2023-12-20T10:47:58;35.83;;;32.00;;
6027;SDS011;3042;43.194;27.646;2023-12-20T10:50:26;55.83;;;35.17;;
6027;SDS011;3042;43.194;27.646;2023-12-20T10:52:55;68.67;;;49.97;;
6027;SDS011;3042;43.194;27.646;2023-12-20T10:55:22;71.80;;;50.43;;
6027;SDS011;3042;43.194;27.646;2023-12-20T10:57:50;84.07;;;51.03;;
6027;SDS011;3042;43.194;27.646;2023-12-20T11:00:19;58.80;;;39.20;;
6027;SDS011;3042;43.194;27.646;2023-12-20T11:02:49;61.73;;;37.83;;
6027;SDS011;3042;43.194;27.646;2023-12-20T11:05:24;47.90;;;39.07;;
6027;SDS011;3042;43.194;27.646;2023-12-20T11:07:58;53.33;;;37.50;;
6027;SDS011;3042;43.194;27.646;2023-12-20T11:10:33;88.90;;;39.77;;
6027;SDS011;3042;43.194;27.646;2023-12-20T11:13:06;86.13;;;37.27;;
6027;SDS011;3042;43.194;27.646;2023-12-20T11:15:38;67.20;;;37.13;;
6027;SDS011;3042;43.194;27.646;2023-12-20T11:18:06;68.03;;;36.60;;
6027;SDS011;3042;43.194;27.646;2023-12-20T11:20:36;84.50;;;37.40;;
6027;SDS011;3042;43.194;27.646;2023-12-20T11:23:04;50.63;;;31.67;;
6027;SDS011;3042;43.194;27.646;2023-12-20T11:25:38;37.67;;;29.07;;
6027;SDS011;3042;43.194;27.646;2023-12-20T11:28:13;56.37;;;30.33;;
6027;SDS011;3042;43.194;27.646;2023-12-20T11:30:48;28.33;;;23.40;;
6027;SDS011;3042;43.194;27.646;2023-12-20T11:33:17;30.10;;;23.53;;
6027;SDS011;3042;43.194;27.646;2023-12-20T11:35:48;34.13;;;27.13;;
6027;SDS011;3042;43.194;27.646;2023-12-20T11:38:15;34.33;;;23.60;;
6027;SDS011;3042;43.194;27.646;2023-12-20T11:40:43;27.70;;;24.30;;
6027;SDS011;3042;43.194;27.646;2023-12-20T11:43:10;31.03;;;23.90;;
6027;SDS011;3042;43.194;27.646;2023-12-20T11:45:38;32.57;;;24.00;;
6027;SDS011;3042;43.194;27.646;2023-12-20T11:48:17;45.17;;;25.57;;
6027;SDS011;3042;43.194;27.646;2023-12-20T11:50:45;51.17;;;26.27;;
6027;SDS011;3042;43.194;27.646;2023-12-20T11:53:13;45.50;;;25.33;;
6027;SDS011;3042;43.194;27.646;2023-12-20T11:55:40;59.53;;;26.40;;
6027;SDS011;3042;43.194;27.646;2023-12-20T11:58:07;59.90;;;24.57;;
6027;SDS011;3042;43.194;27.646;2023-12-20T12:00:35;43.90;;;23.13;;
6027;SDS011;3042;43.194;27.646;2023-12-20T12:03:04;25.67;;;22.97;;
6027;SDS011;3042;43.194;27.646;2023-12-20T12:05:31;23.63;;;19.37;;
6027;SDS011;3042;43.194;27.646;2023-12-20T12:07:58;23.07;;;20.97;;
6027;SDS011;3042;43.194;27.646;2023-12-20T12:10:25;81.70;;;25.30;;
6027;SDS011;3042;43.194;27.646;2023-12-20T12:12:53;23.60;;;21.02;;
6027;SDS011;3042;43.194;27.646;2023-12-20T12:15:20;26.03;;;21.40;;
6027;SDS011;3042;43.194;27.646;2023-12-20T12:17:52;40.43;;;23.77;;
6027;SDS011;3042;43.194;27.646;2023-12-20T12:20:22;41.13;;;22.77;;
6027;SDS011;3042;43.194;27.646;2023-12-20T12:22:57;46.63;;;23.67;;
6027;SDS011;3042;43.194;27.646;2023-12-20T12:25:25;24.73;;;22.20;;
6027;SDS011;3042;43.194;27.646;2023-12-20T12:27:52;61.80;;;25.80;;
6027;SDS011;3042;43.194;27.646;2023-12-20T12:30:19;90.30;;;27.00;;
6027;SDS011;3042;43.194;27.646;2023-12-20T12:32:47;18.80;;;17.57;;
6027;SDS011;3042;43.194;27.646;2023-12-20T12:35:14;71.43;;;21.80;;
6027;SDS011;3042;43.194;27.646;2023-12-20T12:37:43;19.90;;;18.07;;
6027;SDS011;3042;43.194;27.646;2023-12-20T12:40:10;20.80;;;18.63;;
6027;SDS011;3042;43.194;27.646;2023-12-20T12:42:39;20.73;;;18.83;;
6027;SDS011;3042;43.194;27.646;2023-12-20T12:45:08;19.07;;;17.87;;
6027;SDS011;3042;43.194;27.646;2023-12-20T12:47:36;17.80;;;16.33;;
6027;SDS011;3042;43.194;27.646;2023-12-20T12:50:04;24.70;;;16.77;;
6027;SDS011;3042;43.194;27.646;2023-12-20T12:52:32;24.10;;;18.30;;
6027;SDS011;3042;43.194;27.646;2023-12-20T12:55:02;62.07;;;20.33;;
6027;SDS011;3042;43.194;27.646;2023-12-20T12:57:30;27.30;;;15.80;;
6027;SDS011;3042;43.194;27.646;2023-12-20T12:59:57;20.00;;;18.50;;
6027;SDS011;3042;43.194;27.646;2023-12-20T13:02:24;22.50;;;19.33;;
6027;SDS011;3042;43.194;27.646;2023-12-20T13:04:52;18.37;;;16.60;;
6027;SDS011;3042;43.194;27.646;2023-12-20T13:07:19;77.87;;;18.83;;
6027;SDS011;3042;43.194;27.646;2023-12-20T13:09:46;20.20;;;16.03;;
6027;SDS011;3042;43.194;27.646;2023-12-20T13:12:15;15.20;;;14.50;;
6027;SDS011;3042;43.194;27.646;2023-12-20T13:14:42;29.90;;;17.67;;
6027;SDS011;3042;43.194;27.646;2023-12-20T13:17:10;18.37;;;16.47;;
6027;SDS011;3042;43.194;27.646;2023-12-20T13:19:37;22.00;;;15.70;;
6027;SDS011;3042;43.194;27.646;2023-12-20T13:22:05;15.50;;;14.47;;
6027;SDS011;3042;43.194;27.646;2023-12-20T13:24:32;16.23;;;14.70;;
6027;SDS011;3042;43.194;27.646;2023-12-20T13:26:59;15.60;;;14.27;;
6027;SDS011;3042;43.194;27.646;2023-12-20T13:29:28;16.70;;;15.70;;
6027;SDS011;3042;43.194;27.646;2023-12-20T13:31:55;35.43;;;18.33;;
6027;SDS011;3042;43.194;27.646;2023-12-20T13:34:23;50.13;;;17.17;;
6027;SDS011;3042;43.194;27.646;2023-12-20T13:36:50;23.33;;;15.67;;
6027;SDS011;3042;43.194;27.646;2023-12-20T13:39:17;49.37;;;21.03;;
6027;SDS011;3042;43.194;27.646;2023-12-20T13:41:45;33.07;;;16.00;;
6027;SDS011;3042;43.194;27.646;2023-12-20T13:44:12;30.17;;;16.63;;
6027;SDS011;3042;43.194;27.646;2023-12-20T13:46:41;19.77;;;16.13;;
6027;SDS011;3042;43.194;27.646;2023-12-20T13:49:08;57.27;;;21.20;;
6027;SDS011;3042;43.194;27.646;2023-12-20T13:51:37;50.37;;;18.50;;
6027;SDS011;3042;43.194;27.646;2023-12-20T13:54:04;51.80;;;19.00;;
6027;SDS011;3042;43.194;27.646;2023-12-20T13:56:32;16.67;;;15.37;;
6027;SDS011;3042;43.194;27.646;2023-12-20T13:58:59;16.43;;;14.90;;
6027;SDS011;3042;43.194;27.646;2023-12-20T14:01:26;23.67;;;15.43;;
6027;SDS011;3042;43.194;27.646;2023-12-20T14:03:55;71.83;;;19.70;;
6027;SDS011;3042;43.194;27.646;2023-12-20T14:06:22;64.20;;;21.83;;
6027;SDS011;3042;43.194;27.646;2023-12-20T14:08:49;37.03;;;19.03;;
6027;SDS011;3042;43.194;27.646;2023-12-20T14:11:16;63.67;;;19.33;;
6027;SDS011;3042;43.194;27.646;2023-12-20T14:13:44;19.20;;;15.90;;
6027;SDS011;3042;43.194;27.646;2023-12-20T14:16:12;48.67;;;17.50;;
6027;SDS011;3042;43.194;27.646;2023-12-20T14:18:39;21.60;;;17.10;;
6027;SDS011;3042;43.194;27.646;2023-12-20T14:21:08;92.67;;;21.20;;
6027;SDS011;3042;43.194;27.646;2023-12-20T14:23:35;49.87;;;20.83;;
6027;SDS011;3042;43.194;27.646;2023-12-20T14:26:02;89.90;;;21.40;;
6027;SDS011;3042;43.194;27.646;2023-12-20T14:28:30;59.57;;;18.87;;
6027;SDS011;3042;43.194;27.646;2023-12-20T14:30:57;40.33;;;16.30;;
6027;SDS011;3042;43.194;27.646;2023-12-20T14:33:24;37.83;;;18.03;;
6027;SDS011;3042;43.194;27.646;2023-12-20T14:35:51;62.77;;;17.60;;
6027;SDS011;3042;43.194;27.646;2023-12-20T14:38:20;31.10;;;16.60;;